Time;durP1;ratioP1;P1;durP2;ratioP2;P2;SDS_P1;SDS_P2;PMS_P1;PMS_P2;Temp;Humidity;BMP_temperature;BMP_pressure;BME280_temperature;BME280_humidity;BME280_pressure;Samples;Min_cycle;Max_cycle;Signal;HPM_P1;HPM_P2
2021/12/25 00:05:22;;;;;;;;;;;;;;;;;;;;;
2021/12/25 00:11:36;;;;;;;20.10;11.50;;;;;;;0.39;89.58;97444.46;212878;1327;24259;-70
2021/12/25 00:29:16;;;;;;;20.20;12.40;;;;;;;0.53;89.90;97477.74;211889;1327;25965;-70
2021/12/25 00:35:52;;;;;;;;;;;;;;;;;;;;;
2021/12/25 00:42:23;;;;;;;;;;;;;;;;;;;;;
2021/12/25 00:48:02;;;;;;;14.10;9.30;;;;;;;0.46;89.84;97499.42;213293;1329;22647;-70
2021/12/25 00:54:24;;;;;;;15.10;9.80;;;;;;;0.38;89.55;97495.83;212941;1329;22596;-71
2021/12/25 01:01:00;;;;;;;;;;;;;;;;;;;;;
2021/12/25 01:39:11;;;;;;;7.80;5.20;;;;;;;0.09;90.01;97576.83;211958;1329;22644;-70
2021/12/25 01:52:34;;;;;;;9.60;6.50;;;;;;;-0.03;90.15;97592.69;211340;1329;25371;-70
2021/12/25 01:58:47;;;;;;;8.40;6.60;;;;;;;-0.08;90.00;97583.95;212815;1328;22574;-70
2021/12/25 02:04:47;;;;;;;11.60;7.50;;;;;;;-0.11;89.84;97588.05;213036;1329;22670;-69
2021/12/25 02:10:34;;;;;;;11.70;7.70;;;;;;;-0.13;89.88;97590.36;211928;1330;22618;-70
2021/12/25 02:16:04;;;;;;;7.30;5.50;;;;;;;-0.14;89.87;97598.83;212092;1330;22978;-71
2021/12/25 02:21:57;;;;;;;11.20;8.60;;;;;;;-0.16;89.97;97610.43;212942;1330;24504;-70
2021/12/25 02:27:22;;;;;;;12.10;7.20;;;;;;;-0.16;90.10;97617.18;212726;1329;23291;-70
2021/12/25 02:33:45;;;;;;;;;;;;;;;;;;;;;
2021/12/25 02:39:31;;;;;;;9.70;6.50;;;;;;;-0.14;89.96;97637.73;212070;1329;24275;-71
2021/12/25 02:45:18;;;;;;;;;;;;;;;;;;;;;
2021/12/25 02:51:55;;;;;;;;;;;;;;;;;;;;;
2021/12/25 02:57:40;;;;;;;7.30;4.20;;;;;;;-0.27;89.54;97673.80;212851;1330;22609;-71
2021/12/25 03:04:12;;;;;;;;;;;;;;;;;;;;;
2021/12/25 03:16:50;;;;;;;9.40;5.80;;;;;;;-0.80;88.51;97684.98;212805;1329;22613;-71
2021/12/25 03:22:58;;;;;;;7.30;4.30;;;;;;;-0.88;88.58;97703.45;213062;1325;24230;-70
2021/12/25 03:28:37;;;;;;;12.00;6.90;;;;;;;-0.96;88.56;97709.21;212728;1329;22810;-71
2021/12/25 04:08:43;;;;;;;4.40;3.20;;;;;;;-1.47;87.16;97778.61;212862;1329;22721;-71
2021/12/25 04:14:38;;;;;;;;;;;;;;;;;;;;;
2021/12/25 05:02:21;;;;;;;;;;;;;;;;;;;;;
2021/12/25 05:23:59;;;;;;;;;;;;;;;;;;;;;
2021/12/25 05:30:18;;;;;;;;;;;;;;;;;;;;;
2021/12/25 05:37:03;;;;;;;3.20;1.80;;;;;;;-2.81;83.96;97925.43;211437;1329;22988;-69
2021/12/25 05:42:45;;;;;;;3.80;2.60;;;;;;;-2.96;83.73;97933.80;211186;1328;22689;-69
2021/12/25 05:48:23;;;;;;;;;;;;;;;;;;;;;
2021/12/25 05:53:44;;;;;;;3.00;2.50;;;;;;;-3.07;83.67;97955.79;211635;1329;24620;-69
2021/12/25 05:59:55;;;;;;;4.90;2.70;;;;;;;-3.15;83.53;97963.42;211870;1329;24443;-69
2021/12/25 06:05:23;;;;;;;5.70;3.70;;;;;;;-3.23;83.31;97974.35;211810;1329;25402;-70
2021/12/25 06:10:34;;;;;;;3.70;3.10;;;;;;;-3.30;83.23;97985.21;211916;1329;22694;-69
2021/12/25 06:15:54;;;;;;;4.50;2.50;;;;;;;-3.34;83.34;97993.36;211905;1329;25541;-68
2021/12/25 06:21:33;;;;;;;2.90;2.20;;;;;;;-3.41;82.75;98000.11;211799;1328;24265;-69
2021/12/25 06:27:45;;;;;;;3.50;2.10;;;;;;;-3.52;82.75;98009.77;211806;1325;22830;-69
2021/12/25 06:33:18;;;;;;;4.40;2.20;;;;;;;-3.61;82.37;98020.85;212158;1329;25523;-70
2021/12/25 06:38:58;;;;;;;4.50;2.60;;;;;;;-3.71;82.02;98022.95;211838;1328;24346;-69
2021/12/25 06:44:09;;;;;;;;;;;;;;;-3.79;82.12;98026.42;211943;1329;22577;-70
2021/12/25 06:49:16;;;;;;;2.90;2.50;;;;;;;-3.86;81.96;98029.45;211918;1327;22738;-70
2021/12/25 06:54:50;;;;;;;2.80;1.80;;;;;;;-3.92;81.77;98031.91;211364;1329;25626;-69
2021/12/25 07:00:23;;;;;;;3.20;2.50;;;;;;;-3.96;81.72;98037.77;211982;1328;24372;-69
2021/12/25 07:05:53;;;;;;;4.40;2.40;;;;;;;-3.97;81.47;98041.61;212126;1328;23223;-70
2021/12/25 07:11:25;;;;;;;8.30;4.80;;;;;;;-3.97;81.54;98044.64;212107;1328;24800;-70
2021/12/25 07:17:00;;;;;;;12.20;5.70;;;;;;;-3.90;81.71;98054.21;212067;1329;25721;-70
2021/12/25 07:22:55;;;;;;;11.10;6.10;;;;;;;-3.85;81.70;98047.92;213236;1329;25564;-71
2021/12/25 07:28:25;;;;;;;9.70;6.10;;;;;;;-3.84;81.77;98050.95;213063;1322;22747;-70
2021/12/25 07:33:31;;;;;;;9.70;5.20;;;;;;;-3.83;81.85;98064.56;212688;1322;180779;-70
2021/12/25 07:38:34;;;;;;;7.80;4.90;;;;;;;-3.80;81.97;98063.64;212531;1329;22874;-71
2021/12/25 07:43:49;;;;;;;9.00;5.00;;;;;;;-3.88;81.29;98064.22;212856;1329;22748;-71
2021/12/25 07:49:23;;;;;;;10.90;4.70;;;;;;;-3.89;81.33;98075.46;212231;1328;22638;-70
2021/12/25 07:54:25;;;;;;;12.90;5.20;;;;;;;-3.83;81.27;98079.68;212116;1329;22982;-71
2021/12/25 07:59:40;;;;;;;7.10;3.30;;;;;;;-3.87;80.87;98080.48;213054;1328;22610;-70
2021/12/25 08:05:41;;;;;;;;;;;;;;;;;;;;;
2021/12/25 08:11:17;;;;;;;5.10;3.00;;;;;;;-4.05;80.35;98092.06;213224;1329;22624;-71
2021/12/25 08:16:26;;;;;;;5.10;2.90;;;;;;;-3.99;80.32;98107.33;212678;1329;23997;-70
2021/12/25 08:21:38;;;;;;;11.80;3.80;;;;;;;-3.99;80.16;98100.73;213156;1325;25771;-70
2021/12/25 08:27:28;;;;;;;6.60;2.90;;;;;;;-4.01;79.80;98116.31;212751;1329;22657;-70
2021/12/25 08:33:06;;;;;;;4.00;2.10;;;;;;;-4.02;79.54;98118.61;213190;1324;22659;-70
2021/12/25 08:38:27;;;;;;;3.50;1.50;;;;;;;-4.04;79.02;98118.67;212320;1327;22759;-69
2021/12/25 08:43:34;;;;;;;6.60;2.60;;;;;;;-4.05;78.95;98125.11;213091;1324;22724;-71
2021/12/25 08:49:03;;;;;;;4.60;2.10;;;;;;;-4.03;78.75;98122.08;212940;1321;24271;-70
2021/12/25 08:54:12;;;;;;;5.10;2.50;;;;;;;-3.96;78.69;98128.52;212902;1329;24324;-70
2021/12/25 08:59:19;;;;;;;10.80;5.00;;;;;;;-3.86;78.39;98135.15;212886;1329;23065;-71
2021/12/25 09:04:21;;;;;;;7.80;4.40;;;;;;;-3.84;78.39;98139.58;212889;1327;22638;-69
2021/12/25 09:09:37;;;;;;;9.90;4.40;;;;;;;-3.78;78.43;98138.36;212965;1329;22760;-71
2021/12/25 09:14:44;;;;;;;11.80;4.70;;;;;;;-3.63;78.66;98144.68;213226;1329;22601;-70
2021/12/25 09:19:47;;;;;;;11.50;5.60;;;;;;;-3.48;78.79;98147.67;212867;1329;25450;-70
2021/12/25 09:24:49;;;;;;;13.80;6.40;;;;;;;-3.36;78.65;98147.07;213238;1324;22716;-70
2021/12/25 09:29:52;;;;;;;15.80;7.40;;;;;;;-3.31;78.32;98159.36;212580;1327;22750;-71
2021/12/25 09:35:11;;;;;;;13.00;6.40;;;;;;;-3.29;78.26;98161.39;212786;1329;22719;-71
2021/12/25 09:40:17;;;;;;;14.60;6.70;;;;;;;-3.23;78.25;98158.82;212900;1329;23576;-71
2021/12/25 09:45:20;;;;;;;11.40;5.70;;;;;;;-3.17;78.20;98156.76;213312;1329;22658;-71
2021/12/25 09:50:26;;;;;;;9.70;6.20;;;;;;;-3.12;78.18;98152.88;213130;1329;22743;-71
2021/12/25 09:55:28;;;;;;;16.80;8.10;;;;;;;-3.02;78.05;98144.85;212802;1329;24322;-71
2021/12/25 10:00:51;;;;;;;13.70;7.20;;;;;;;-2.85;78.23;98138.16;212402;1329;25691;-71
2021/12/25 10:05:57;;;;;;;10.90;5.80;;;;;;;-2.71;78.16;98135.60;212561;1329;23996;-71
2021/12/25 10:11:02;;;;;;;13.70;7.30;;;;;;;-2.64;77.65;98131.14;213480;1329;22623;-71
2021/12/25 10:16:40;;;;;;;14.80;8.60;;;;;;;-2.66;77.53;98126.21;213176;1329;23758;-71
2021/12/25 10:21:43;;;;;;;14.50;7.70;;;;;;;-2.60;77.75;98122.50;213156;1329;22591;-71
2021/12/25 10:26:48;;;;;;;13.30;6.10;;;;;;;-2.59;77.76;98123.21;212727;1327;23989;-71
2021/12/25 10:32:17;;;;;;;10.90;5.70;;;;;;;-2.57;77.31;98124.15;212820;1329;22696;-70
2021/12/25 10:38:28;;;;;;;;;;;;;;;;;;;;;
2021/12/25 10:44:32;;;;;;;5.90;2.70;;;;;;;-2.44;75.92;98126.84;213203;1329;22673;-71
2021/12/25 10:50:07;;;;;;;7.60;3.00;;;;;;;-2.42;75.04;98128.46;212766;1329;25578;-70
2021/12/25 10:55:57;;;;;;;17.00;4.90;;;;;;;-2.37;74.83;98126.88;212707;1329;22630;-72
2021/12/25 11:02:06;;;;;;;7.90;3.70;;;;;;;-2.42;74.56;98129.92;212757;1329;24013;-71
2021/12/25 11:07:49;;;;;;;11.80;4.50;;;;;;;-2.47;74.34;98126.55;213350;1329;26843;-71
2021/12/25 11:12:54;;;;;;;10.40;5.10;;;;;;;-2.47;74.09;98121.06;212943;1329;25677;-71
2021/12/25 11:18:19;;;;;;;11.60;5.10;;;;;;;-2.48;74.12;98123.81;213001;1329;22664;-71
2021/12/25 11:23:47;;;;;;;12.60;5.70;;;;;;;-2.41;74.14;98123.30;211952;1329;24181;-71
2021/12/25 11:28:53;;;;;;;13.20;5.60;;;;;;;-2.47;73.80;98127.06;213066;1329;25813;-71
2021/12/25 11:33:55;;;;;;;9.60;4.30;;;;;;;-2.51;73.93;98122.75;213118;1329;22635;-70
2021/12/25 11:38:58;;;;;;;13.70;5.80;;;;;;;-2.63;73.48;98118.65;212685;1329;25677;-71
2021/12/25 11:44:29;;;;;;;12.20;4.90;;;;;;;-2.67;73.80;98122.98;213075;1329;25487;-70
2021/12/25 11:49:42;;;;;;;11.40;5.90;;;;;;;-2.71;73.61;98126.28;212609;1329;24349;-71
2021/12/25 12:01:02;;;;;;;14.30;5.60;;;;;;;-2.90;72.86;98115.66;213370;1329;23877;-69
2021/12/25 12:06:06;;;;;;;15.60;5.90;;;;;;;-3.02;73.13;98118.96;213245;1329;24417;-71
2021/12/25 12:11:24;;;;;;;15.40;6.40;;;;;;;-3.04;73.33;98123.89;213240;1329;22626;-70
2021/12/25 12:23:02;;;;;;;15.00;6.60;;;;;;;-2.96;73.26;98141.73;213031;1329;22667;-71
2021/12/25 12:28:06;;;;;;;10.80;5.50;;;;;;;-2.94;73.43;98150.83;212831;1322;29469;-70
2021/12/25 12:33:14;;;;;;;13.40;7.30;;;;;;;-2.96;73.28;98147.30;212660;1329;29172;-71
2021/12/25 12:38:44;;;;;;;13.30;6.70;;;;;;;-2.97;73.47;98155.80;213319;1327;22879;-71
2021/12/25 12:44:14;;;;;;;17.30;7.10;;;;;;;-2.96;73.74;98161.45;213162;1329;24372;-71
2021/12/25 12:49:50;;;;;;;20.80;8.20;;;;;;;-3.00;73.52;98173.86;213251;1329;25437;-70
2021/12/25 12:54:59;;;;;;;17.30;8.30;;;;;;;-3.02;73.50;98185.05;213191;1329;22639;-71
2021/12/25 13:00:26;;;;;;;14.20;7.30;;;;;;;-3.03;73.89;98189.84;213207;1327;22833;-71
2021/12/25 13:05:33;;;;;;;16.20;7.60;;;;;;;-3.04;73.57;98189.78;213245;1329;24244;-71
2021/12/25 13:15:58;;;;;;;16.20;7.90;;;;;;;-3.10;73.83;98189.70;211805;1329;22647;-71
2021/12/25 13:21:08;;;;;;;17.40;7.80;;;;;;;-3.15;73.38;98203.05;212734;1329;24386;-70
2021/12/25 13:26:36;;;;;;;16.80;7.80;;;;;;;-3.21;73.45;98189.48;213040;1329;22787;-71
2021/12/25 13:31:49;;;;;;;16.50;8.20;;;;;;;-3.25;73.65;98179.83;212712;1329;22640;-71
2021/12/25 13:37:18;;;;;;;19.00;9.40;;;;;;;-3.26;73.76;98187.23;213400;1329;25399;-70
2021/12/25 13:42:55;;;;;;;13.20;7.10;;;;;;;-3.24;73.89;98185.14;212033;1329;23125;-71
2021/12/25 13:49:09;;;;;;;17.80;7.40;;;;;;;-3.32;73.60;98186.92;213293;1328;22817;-71
2021/12/25 13:55:47;;;;;;;;;;;;;;;;;;;;;
2021/12/25 14:00:54;;;;;;;18.00;8.50;;;;;;;-3.57;73.29;98213.88;213623;1328;23957;-71
2021/12/25 14:06:26;;;;;;;26.30;10.90;;;;;;;-3.65;73.57;98216.86;212774;1329;25747;-71
2021/12/25 14:11:29;;;;;;;19.60;11.00;;;;;;;-3.66;73.73;98210.42;213160;1329;23153;-70
2021/12/25 14:16:37;;;;;;;20.10;9.00;;;;;;;-3.72;73.60;98216.05;212884;1329;22783;-70
2021/12/25 14:22:05;;;;;;;21.60;10.90;;;;;;;-3.77;73.73;98208.55;213284;1329;22824;-71
2021/12/25 14:27:13;;;;;;;21.00;10.90;;;;;;;-3.82;73.51;98219.65;212972;1328;22887;-70
2021/12/25 14:32:24;;;;;;;19.90;9.40;;;;;;;-3.81;73.73;98228.10;211650;1319;25983;-70
2021/12/25 14:37:37;;;;;;;21.90;11.30;;;;;;;-3.83;73.46;98226.58;212066;1328;24667;-71
2021/12/25 14:43:01;;;;;;;19.70;11.90;;;;;;;-3.86;73.85;98232.66;211971;1328;23228;-71
2021/12/25 14:48:07;;;;;;;30.30;14.70;;;;;;;-3.90;73.61;98243.95;213036;1329;25656;-71
2021/12/25 14:59:47;;;;;;;28.70;17.10;;;;;;;-3.97;73.98;98232.31;212841;1329;26873;-71
2021/12/25 15:04:53;;;;;;;31.90;19.10;;;;;;;-3.94;73.90;98240.48;212556;1324;22909;-71
2021/12/25 15:10:00;;;;;;;28.90;14.50;;;;;;;-3.97;73.70;98260.65;213360;1325;25400;-70
2021/12/25 15:15:05;;;;;;;31.00;18.10;;;;;;;-4.05;73.93;98265.45;211994;1329;22640;-70
2021/12/25 15:20:14;;;;;;;27.70;14.20;;;;;;;-4.05;73.92;98259.99;213271;1324;22709;-70
2021/12/25 15:25:27;;;;;;;28.00;15.20;;;;;;;-4.04;73.87;98268.01;212637;1329;22809;-71
2021/12/25 15:30:46;;;;;;;22.90;11.00;;;;;;;-4.13;73.73;98278.08;212631;1329;22854;-71
2021/12/25 15:35:48;;;;;;;31.40;17.20;;;;;;;-4.22;73.72;98289.90;212141;1329;276962;-71
2021/12/25 15:41:05;;;;;;;24.20;11.60;;;;;;;-4.22;73.93;98298.73;211841;1328;24851;-71
2021/12/25 15:46:13;;;;;;;26.30;13.90;;;;;;;-4.28;73.85;98290.08;211887;1327;24276;-71
2021/12/25 15:51:18;;;;;;;24.30;12.50;;;;;;;-4.34;73.61;98291.70;211830;1329;24908;-72
2021/12/25 16:17:20;;;;;;;40.50;20.30;;;;;;;-4.41;74.05;98297.70;212610;1330;24060;-71
2021/12/25 16:31:28;;;;;;;39.80;19.80;;;;;;;-4.37;74.52;98315.48;211990;1327;22844;-71
2021/12/25 16:51:53;;;;;;;36.10;19.30;;;;;;;-4.36;75.11;98315.28;212622;1324;25419;-71
2021/12/25 18:37:08;;;;;;;;;;;;;;;;;;;;;
2021/12/25 18:44:13;;;;;;;59.40;23.60;;;;;;;-6.04;77.35;98380.76;212076;1330;22711;-70
2021/12/25 18:58:07;;;;;;;;;;;;;;;;;;;;;
2021/12/25 19:04:07;;;;;;;102.80;39.60;;;;;;;-6.38;78.06;98386.80;212406;1330;25419;-71
2021/12/25 19:09:13;;;;;;;73.20;32.30;;;;;;;-6.48;78.02;98393.46;213088;1329;22784;-72
2021/12/25 19:14:50;;;;;;;94.70;40.10;;;;;;;-6.60;77.99;98391.18;211719;1329;25942;-71
2021/12/25 19:20:15;;;;;;;91.60;40.20;;;;;;;-6.71;78.19;98391.92;212219;1329;26158;-71
2021/12/25 19:25:46;;;;;;;107.60;43.60;;;;;;;-6.76;78.57;98390.15;213016;1325;25580;-71
2021/12/25 19:30:59;;;;;;;104.20;46.60;;;;;;;-6.81;78.83;98389.88;212975;1328;22846;-70
2021/12/25 19:36:04;;;;;;;102.40;45.20;;;;;;;-6.84;78.88;98391.36;212889;1330;22850;-70
2021/12/25 19:41:06;;;;;;;123.10;52.80;;;;;;;-6.89;78.75;98400.58;211999;1329;22967;-71
2021/12/25 19:46:15;;;;;;;123.90;51.90;;;;;;;-6.92;78.96;98401.73;212829;1330;24433;-70
2021/12/25 19:51:20;;;;;;;120.90;51.00;;;;;;;-6.94;79.31;98405.61;212859;1329;25604;-71
2021/12/25 19:56:34;;;;;;;;;;;;;;;;;;;;;
2021/12/25 20:01:41;;;;;;;154.80;61.50;;;;;;;-7.05;79.22;98405.61;212600;1330;26657;-71
2021/12/25 20:07:22;;;;;;;140.50;59.10;;;;;;;-7.06;79.47;98403.44;212954;1330;22734;-70
2021/12/25 20:13:02;;;;;;;159.10;64.70;;;;;;;-7.09;79.51;98407.13;212772;1329;22748;-71
2021/12/25 20:18:50;;;;;;;;;;;;;;;;;;;;;
2021/12/25 20:24:15;;;;;;;127.30;54.80;;;;;;;-7.18;79.42;98410.90;212670;1329;22698;-71
2021/12/25 20:29:20;;;;;;;138.40;56.40;;;;;;;-7.26;79.45;98419.07;213120;1328;22767;-71
2021/12/25 20:34:35;;;;;;;149.70;62.70;;;;;;;-7.35;79.34;98421.67;212850;1329;22929;-71
2021/12/25 20:39:43;;;;;;;;;;;;;;;-7.39;79.63;98427.23;213045;1329;23901;-71
2021/12/25 20:50:01;;;;;;;166.20;68.10;;;;;;;-7.47;79.74;98429.83;212897;1327;22958;-70
2021/12/25 20:55:18;;;;;;;163.00;70.50;;;;;;;-7.49;80.02;98438.88;213210;1322;22666;-71
2021/12/25 21:00:47;;;;;;;163.80;67.00;;;;;;;-7.47;80.25;98432.22;213259;1329;22720;-71
2021/12/25 21:06:06;;;;;;;165.50;66.70;;;;;;;-7.51;80.18;98426.23;212710;1330;24259;-70
2021/12/25 21:11:10;;;;;;;162.00;66.70;;;;;;;-7.60;79.96;98425.77;213089;1329;22740;-71
2021/12/25 21:16:49;;;;;;;;;;;;;;;;;;;;;
2021/12/25 21:22:08;;;;;;;171.40;64.90;;;;;;;-7.70;79.99;98430.17;212138;1329;25836;-71
2021/12/25 21:27:16;;;;;;;162.60;66.40;;;;;;;-7.76;80.04;98439.46;212862;1321;22833;-72
2021/12/25 21:38:03;;;;;;;186.80;74.20;;;;;;;-7.78;80.30;98449.73;213161;1329;24057;-70
2021/12/25 21:43:05;;;;;;;186.10;76.20;;;;;;;-7.75;80.53;98448.50;213213;1328;22731;-70
2021/12/25 21:48:11;;;;;;;165.10;72.40;;;;;;;-7.69;80.83;98457.65;213161;1330;24079;-69
2021/12/25 21:53:57;;;;;;;176.90;71.10;;;;;;;-7.73;80.56;98461.70;213004;1328;22615;-71
2021/12/25 21:59:11;;;;;;;187.50;75.50;;;;;;;-7.81;80.47;98463.27;213249;1329;22723;-71
2021/12/25 22:04:26;;;;;;;188.90;76.50;;;;;;;-7.86;80.33;98457.48;213197;1329;22819;-70
2021/12/25 22:09:33;;;;;;;177.70;78.80;;;;;;;-7.90;80.53;98453.66;213081;1329;23024;-71
2021/12/25 22:14:38;;;;;;;187.70;76.00;;;;;;;-7.98;80.35;98445.83;213306;1330;22921;-72
2021/12/25 22:19:47;;;;;;;193.10;78.40;;;;;;;-8.06;80.39;98437.41;213319;1329;24613;-70
2021/12/25 22:24:59;;;;;;;147.10;53.80;;;;;;;-8.12;80.34;98438.02;212826;1330;22839;-71
2021/12/25 22:30:08;;;;;;;225.30;82.50;;;;;;;-8.16;80.54;98442.79;212873;1327;22725;-71
2021/12/25 22:35:15;;;;;;;228.30;81.80;;;;;;;-8.16;80.66;98445.44;212804;1329;22695;-71
2021/12/25 22:40:35;;;;;;;220.10;86.80;;;;;;;-8.18;80.45;98450.19;212959;1324;25376;-72
2021/12/25 22:45:40;;;;;;;189.90;77.80;;;;;;;-8.16;80.72;98453.79;213163;1329;22662;-71
2021/12/25 22:50:43;;;;;;;198.40;79.60;;;;;;;-8.18;80.61;98461.75;213337;1328;23382;-71
2021/12/25 22:55:45;;;;;;;187.10;75.40;;;;;;;-8.26;80.41;98457.45;212835;1329;23083;-72
2021/12/25 23:01:13;;;;;;;170.30;65.20;;;;;;;-8.36;80.27;98455.98;213300;1329;22966;-70
2021/12/25 23:06:21;;;;;;;175.30;77.70;;;;;;;-8.44;80.36;98452.81;212028;1329;23313;-71
2021/12/25 23:11:35;;;;;;;190.30;77.90;;;;;;;-8.48;80.65;98450.91;213482;1329;22869;-71
2021/12/25 23:16:50;;;;;;;149.30;59.70;;;;;;;-8.46;80.95;98448.48;213398;1324;22830;-70
2021/12/25 23:22:06;;;;;;;;;;;;;;;;;;;;;
2021/12/25 23:27:14;;;;;;;182.50;68.30;;;;;;;-8.42;80.92;98459.21;213209;1321;26037;-71
2021/12/25 23:32:47;;;;;;;150.50;59.30;;;;;;;-8.43;81.06;98450.14;213156;1329;22860;-71
2021/12/25 23:38:03;;;;;;;142.00;58.10;;;;;;;-8.46;80.87;98443.21;205893;1328;10365542;-71
2021/12/25 23:50:56;;;;;;;;;;;;;;;;;;;;;
2021/12/25 23:57:27;;;;;;;160.80;59.90;;;;;;;-8.64;80.80;98448.62;212858;1329;25748;-71
